Time;durP1;ratioP1;P1;durP2;ratioP2;P2;SDS_P1;SDS_P2;PMS_P1;PMS_P2;Temp;Humidity;BMP_temperature;BMP_pressure;BME280_temperature;BME280_humidity;BME280_pressure;Samples;Min_cycle;Max_cycle;Signal;HPM_P1;HPM_P2
2022/04/10 00:00:21;;;;;;;15.87;3.50;;;14.00;53.10;;;14.24;43.90;93818.03;5057827;28;21065;-54
2022/04/10 00:02:48;;;;;;;10.63;4.07;;;14.00;53.60;;;14.20;44.10;93818.59;5062270;28;20451;-56
2022/04/10 00:05:16;;;;;;;10.67;4.17;;;14.00;53.90;;;14.16;43.99;93818.16;5058829;28;20474;-55
2022/04/10 00:07:44;;;;;;;6.03;3.80;;;13.90;53.70;;;14.10;44.46;93811.78;5059788;28;20458;-55
2022/04/10 00:10:11;;;;;;;10.70;4.30;;;13.90;53.90;;;14.07;44.23;93809.53;5063443;28;20494;-56
2022/04/10 00:12:38;;;;;;;6.53;3.03;;;13.90;54.10;;;14.03;44.31;93818.81;5057765;28;20477;-56
2022/04/10 00:15:07;;;;;;;7.93;3.20;;;13.80;54.40;;;13.98;44.88;93810.66;5060367;28;20869;-55
2022/04/10 00:17:35;;;;;;;8.83;2.80;;;13.80;54.80;;;13.89;44.45;93807.28;5059812;28;20525;-55
2022/04/10 00:20:02;;;;;;;11.80;3.33;;;13.70;54.70;;;13.84;44.82;93820.25;5055576;28;20548;-55
2022/04/10 00:22:31;;;;;;;5.70;2.90;;;13.60;54.70;;;13.81;44.81;93821.44;5059430;28;20456;-54
2022/04/10 00:24:58;;;;;;;12.53;2.90;;;13.60;54.70;;;13.78;44.88;93805.94;5059798;28;20525;-56
2022/04/10 00:27:25;;;;;;;8.03;3.10;;;13.60;55.00;;;13.75;44.98;93811.59;5055406;28;20459;-55
2022/04/10 00:29:52;;;;;;;16.80;2.97;;;13.50;55.10;;;13.73;44.79;93805.69;5059691;28;20487;-55
2022/04/10 00:32:20;;;;;;;5.13;3.57;;;13.50;55.00;;;13.70;45.08;93810.53;5057842;28;20506;-54
2022/04/10 00:34:47;;;;;;;6.10;2.50;;;13.50;55.20;;;13.67;45.11;93809.06;5059037;28;20487;-54
2022/04/10 00:37:14;;;;;;;8.60;3.43;;;13.50;55.20;;;13.66;45.18;93817.19;5061654;28;20450;-54
2022/04/10 00:39:43;;;;;;;11.17;2.60;;;13.40;55.20;;;13.61;45.00;93815.91;5057026;28;20479;-55
2022/04/10 00:42:10;;;;;;;11.63;3.40;;;13.40;54.90;;;13.53;44.74;93802.81;5056586;28;20509;-55
2022/04/10 00:44:37;;;;;;;7.43;2.83;;;13.40;55.00;;;13.50;45.07;93813.75;5059777;28;20481;-55
2022/04/10 00:47:05;;;;;;;8.00;2.10;;;13.30;55.70;;;13.44;45.27;93807.34;5056651;28;20479;-55
2022/04/10 00:49:33;;;;;;;6.67;2.47;;;13.20;55.40;;;13.43;45.07;93810.19;5056472;28;20534;-54
2022/04/10 00:52:00;;;;;;;4.57;3.10;;;13.20;55.40;;;13.41;45.22;93799.00;5056135;28;20462;-55
2022/04/10 00:54:30;;;;;;;8.73;3.17;;;13.20;55.80;;;13.38;45.95;93794.88;5055825;28;20987;-56
2022/04/10 00:57:00;;;;;;;6.10;3.57;;;13.20;56.50;;;13.36;45.56;93769.69;5057309;28;20627;-54
2022/04/10 00:59:27;;;;;;;5.43;2.87;;;13.20;56.00;;;13.30;46.00;93765.91;5050994;28;20529;-57
2022/04/10 01:01:55;;;;;;;10.13;3.80;;;13.10;56.30;;;13.25;45.23;93778.84;5056697;28;20813;-56
2022/04/10 01:04:22;;;;;;;8.23;3.57;;;13.00;55.80;;;13.15;45.88;93752.75;5060069;28;21053;-54
2022/04/10 01:06:50;;;;;;;6.30;3.80;;;13.00;56.20;;;13.09;46.39;93756.13;5056127;28;20955;-55
2022/04/10 01:09:20;;;;;;;10.23;3.80;;;12.90;57.00;;;13.04;46.11;93759.31;5056280;28;20474;-57
2022/04/10 01:11:47;;;;;;;8.20;4.00;;;12.90;56.70;;;12.99;46.48;93748.44;5055485;28;20517;-55
2022/04/10 01:14:15;;;;;;;10.20;3.20;;;12.80;57.00;;;12.98;46.78;93764.47;5057202;28;20444;-54
2022/04/10 01:16:43;;;;;;;7.90;4.10;;;12.80;57.50;;;12.95;46.43;93754.28;5052951;28;20518;-55
2022/04/10 01:19:11;;;;;;;7.33;2.50;;;12.80;57.40;;;12.90;46.34;93760.94;5061183;28;20459;-54
2022/04/10 01:21:40;;;;;;;8.00;3.50;;;12.70;57.40;;;12.89;46.50;93763.75;5056396;28;20468;-56
2022/04/10 01:24:11;;;;;;;4.00;2.87;;;12.70;58.00;;;12.89;46.61;93761.13;5057418;28;20542;-56
2022/04/10 01:26:38;;;;;;;12.43;2.90;;;12.70;57.90;;;12.89;47.10;93746.09;5057777;28;20475;-54
2022/04/10 01:29:06;;;;;;;8.90;4.13;;;12.70;58.40;;;12.89;46.70;93748.72;5054948;28;20978;-55
2022/04/10 01:31:35;;;;;;;5.03;3.03;;;12.70;58.10;;;12.90;46.28;93752.19;5052085;28;20525;-55
2022/04/10 01:34:05;;;;;;;7.97;3.40;;;12.70;57.50;;;12.91;46.59;93762.56;5056901;28;20466;-56
2022/04/10 01:36:32;;;;;;;5.60;2.87;;;12.70;57.90;;;12.91;46.68;93773.09;5055893;28;20527;-54
2022/04/10 01:39:00;;;;;;;11.70;3.90;;;12.70;58.00;;;12.89;46.57;93764.56;5062119;28;20465;-57
2022/04/10 01:41:30;;;;;;;7.70;3.17;;;12.70;57.90;;;12.89;46.55;93769.84;5053870;28;20470;-57
2022/04/10 01:43:58;;;;;;;5.37;3.33;;;12.70;57.90;;;12.89;46.35;93769.84;5057381;28;20566;-54
2022/04/10 01:46:28;;;;;;;7.30;3.80;;;12.70;57.80;;;12.87;46.68;93777.13;5058560;28;20514;-56
2022/04/10 01:48:55;;;;;;;6.43;4.00;;;12.70;57.90;;;12.87;46.36;93761.31;5051580;28;20448;-55
2022/04/10 01:51:23;;;;;;;7.97;3.60;;;12.70;57.80;;;12.87;46.61;93755.19;5059331;28;20558;-55
2022/04/10 01:53:51;;;;;;;11.13;4.13;;;12.70;58.00;;;12.86;46.61;93759.66;5053595;28;20452;-57
2022/04/10 01:56:18;;;;;;;11.13;4.10;;;12.70;58.20;;;12.84;46.52;93748.47;5055529;28;20499;-55
2022/04/10 01:58:47;;;;;;;4.80;3.40;;;12.60;57.90;;;12.85;46.59;93746.63;5052324;28;20881;-57
2022/04/10 02:01:15;;;;;;;8.70;3.90;;;12.60;58.00;;;12.85;46.97;93751.91;5051449;28;20922;-55
2022/04/10 02:03:43;;;;;;;6.10;3.40;;;12.70;58.50;;;12.85;46.75;93746.63;5056554;28;20452;-56
2022/04/10 02:06:11;;;;;;;7.00;3.20;;;12.60;58.40;;;12.84;46.53;93734.44;5055391;28;20480;-55
2022/04/10 02:08:41;;;;;;;19.77;3.80;;;12.70;58.00;;;12.84;46.82;93745.00;5050056;28;20472;-54
2022/04/10 02:11:11;;;;;;;10.27;4.40;;;12.60;58.40;;;12.84;46.80;93743.19;5051123;28;20471;-55
2022/04/10 02:13:38;;;;;;;12.60;3.90;;;12.60;58.60;;;12.86;46.74;93740.38;5052842;28;20456;-56
2022/04/10 02:16:08;;;;;;;5.30;2.90;;;12.70;58.40;;;12.86;47.11;93727.97;5059194;28;20497;-55
2022/04/10 02:18:36;;;;;;;10.90;3.87;;;12.70;58.70;;;12.89;46.77;93742.66;5056554;28;20983;-54
2022/04/10 02:21:04;;;;;;;8.50;3.13;;;12.70;58.70;;;12.89;46.96;93735.53;5049786;28;20476;-56
2022/04/10 02:23:31;;;;;;;9.47;3.30;;;12.70;58.80;;;12.89;46.50;93746.09;5053444;28;20454;-56
2022/04/10 02:25:58;;;;;;;8.20;3.93;;;12.70;58.40;;;12.89;46.85;93751.38;5058035;28;20584;-56
2022/04/10 02:28:26;;;;;;;6.73;4.60;;;12.70;58.50;;;12.90;46.92;93752.19;5056153;28;20513;-57
2022/04/10 02:30:53;;;;;;;10.43;3.67;;;12.70;58.70;;;12.89;46.84;93748.72;5060195;28;20475;-57
2022/04/10 02:33:22;;;;;;;12.67;3.80;;;12.70;58.70;;;12.90;46.92;93744.25;5054715;28;20458;-55
2022/04/10 02:35:49;;;;;;;11.27;3.90;;;12.70;59.10;;;12.92;47.10;93750.19;5057905;28;20548;-55
2022/04/10 02:38:16;;;;;;;10.30;3.23;;;12.70;59.20;;;12.94;47.07;93747.38;5057291;28;20901;-56
2022/04/10 02:40:44;;;;;;;7.07;3.53;;;12.70;59.20;;;12.93;47.33;93737.81;5054506;28;20537;-55
2022/04/10 02:43:14;;;;;;;8.90;3.70;;;12.70;59.20;;;12.94;47.41;93744.75;5052114;28;20459;-56
2022/04/10 02:45:42;;;;;;;8.63;3.73;;;12.70;59.20;;;12.91;47.08;93744.06;5058771;28;20907;-54
2022/04/10 02:48:09;;;;;;;9.30;3.50;;;12.70;59.10;;;12.94;47.10;93744.75;5055423;28;20471;-56
2022/04/10 02:50:38;;;;;;;10.23;3.57;;;12.80;59.30;;;12.91;47.38;93757.28;5050546;28;20475;-56
2022/04/10 02:53:06;;;;;;;10.70;4.10;;;12.70;59.30;;;12.97;47.48;93765.50;5050825;28;20514;-56
2022/04/10 02:55:33;;;;;;;8.50;4.00;;;12.80;59.70;;;12.97;47.58;93768.94;5055352;28;20565;-54
2022/04/10 02:58:00;;;;;;;18.77;4.40;;;12.80;60.10;;;12.98;47.37;93767.09;5054244;28;20874;-56
2022/04/10 03:00:28;;;;;;;4.83;3.37;;;12.80;60.20;;;12.99;47.57;93774.84;5052145;28;20533;-54
2022/04/10 03:02:55;;;;;;;7.63;3.20;;;12.80;60.20;;;13.01;47.35;93787.84;5055476;28;20543;-56
2022/04/10 03:05:22;;;;;;;8.50;3.70;;;12.80;60.10;;;13.02;47.66;93776.31;5055784;28;20483;-56
2022/04/10 03:07:51;;;;;;;9.60;4.27;;;12.80;60.40;;;13.02;47.80;93794.78;5058174;28;20893;-57
2022/04/10 03:10:18;;;;;;;8.30;3.70;;;12.80;60.60;;;12.98;47.89;93788.22;5060607;28;20869;-55
2022/04/10 03:12:45;;;;;;;10.43;4.20;;;12.80;60.80;;;12.94;48.76;93756.09;5054946;28;20443;-55
2022/04/10 03:15:12;;;;;;;7.20;3.80;;;12.80;62.40;;;12.86;48.33;93770.22;5054380;28;20471;-56
2022/04/10 03:17:40;;;;;;;22.77;4.50;;;12.70;61.50;;;12.84;48.62;93769.56;5054868;28;20452;-55
2022/04/10 03:20:11;;;;;;;5.40;3.93;;;12.70;62.30;;;12.78;49.24;93772.94;5057690;28;20472;-55
2022/04/10 03:22:38;;;;;;;14.63;3.37;;;12.60;63.40;;;12.74;49.83;93784.84;5063306;28;20671;-56
2022/04/10 03:25:08;;;;;;;5.60;3.60;;;12.60;63.80;;;12.66;50.63;93780.47;5061556;28;20467;-57
2022/04/10 03:27:36;;;;;;;8.70;3.67;;;12.50;65.40;;;12.58;50.55;93790.25;5061805;28;20455;-57
2022/04/10 03:30:04;;;;;;;12.10;4.50;;;12.40;65.30;;;12.53;51.67;93785.53;5051535;28;20471;-56
2022/04/10 03:32:31;;;;;;;6.80;4.20;;;12.40;67.90;;;12.43;52.58;93791.06;5053256;28;21070;-57
2022/04/10 03:34:58;;;;;;;6.40;5.10;;;12.30;70.10;;;12.38;54.36;93788.13;5057083;28;20483;-56
2022/04/10 03:37:26;;;;;;;11.07;5.03;;;12.20;73.50;;;12.30;52.95;93791.66;5058204;28;20501;-56
2022/04/10 03:39:53;;;;;;;8.60;6.33;;;12.20;71.50;;;12.29;53.12;93797.09;5055443;28;20471;-55
2022/04/10 03:42:22;;;;;;;18.90;6.10;;;12.10;72.70;;;12.31;53.04;93795.09;5060791;28;20447;-54
2022/04/10 03:44:49;;;;;;;16.50;5.90;;;12.10;72.70;;;12.35;52.83;93783.22;5054951;28;21068;-55
2022/04/10 03:47:16;;;;;;;7.10;6.33;;;12.10;72.80;;;12.37;53.43;93789.94;5062297;28;21080;-56
2022/04/10 03:49:43;;;;;;;10.63;6.73;;;12.20;74.20;;;12.42;53.47;93793.88;5053350;28;20482;-55
2022/04/10 03:52:11;;;;;;;8.87;6.60;;;12.20;74.00;;;12.46;53.02;93795.97;5055998;28;20443;-56
2022/04/10 03:54:38;;;;;;;10.77;8.03;;;12.30;73.80;;;12.48;53.53;93793.16;5054039;28;20468;-55
2022/04/10 03:57:06;;;;;;;23.27;7.17;;;12.30;73.90;;;12.49;54.24;93795.63;5059386;28;20493;-55
2022/04/10 03:59:34;;;;;;;21.33;8.73;;;12.30;75.60;;;12.50;53.72;93807.81;5057938;28;20446;-55
2022/04/10 04:02:02;;;;;;;12.87;8.70;;;12.30;75.10;;;12.50;54.37;93813.09;5056472;28;20854;-58
2022/04/10 04:04:29;;;;;;;10.43;9.33;;;12.30;76.20;;;12.49;54.45;93822.00;5056330;28;20505;-56
2022/04/10 04:06:56;;;;;;;18.97;9.17;;;12.30;76.10;;;12.48;54.91;93820.34;5059735;28;20450;-58
2022/04/10 04:09:23;;;;;;;15.30;10.87;;;12.30;77.00;;;12.46;54.72;93822.34;5055657;28;20450;-55
2022/04/10 04:11:51;;;;;;;13.77;10.77;;;12.30;76.90;;;12.42;56.34;93828.97;5051757;28;20491;-55
2022/04/10 04:14:19;;;;;;;12.33;11.00;;;12.30;79.00;;;12.36;55.77;93829.66;5052317;28;20456;-56
2022/04/10 04:16:48;;;;;;;13.10;11.70;;;12.20;78.10;;;12.30;55.70;93838.28;5057562;28;20490;-55
2022/04/10 04:19:15;;;;;;;21.10;12.17;;;12.20;78.80;;;12.25;55.47;93845.91;5054197;28;20845;-57
2022/04/10 04:21:42;;;;;;;13.67;12.23;;;12.10;78.30;;;12.15;54.28;93846.13;5061801;28;20452;-56
2022/04/10 04:24:10;;;;;;;14.87;12.50;;;12.00;76.30;;;12.03;55.46;93850.97;5058706;28;20915;-56
2022/04/10 04:26:37;;;;;;;16.67;12.70;;;11.90;77.60;;;11.95;55.25;93856.31;5056306;28;20479;-56
2022/04/10 04:29:04;;;;;;;21.53;13.63;;;11.80;77.50;;;11.87;56.22;93854.50;5057644;28;20451;-57
2022/04/10 04:31:32;;;;;;;18.30;12.97;;;11.70;79.80;;;11.80;55.02;93864.91;5052947;28;20472;-57
2022/04/10 04:34:00;;;;;;;15.00;13.27;;;11.70;77.80;;;11.70;55.80;93864.28;5055852;28;20677;-56
2022/04/10 04:36:27;;;;;;;14.13;11.97;;;11.60;79.30;;;11.59;55.31;93869.94;5058761;28;20497;-56
2022/04/10 04:38:57;;;;;;;16.73;13.40;;;11.50;77.90;;;11.45;56.46;93876.75;5057159;28;20455;-54
2022/04/10 04:41:24;;;;;;;20.90;13.90;;;11.40;79.90;;;11.37;55.97;93880.22;5057406;28;20471;-56
2022/04/10 04:43:51;;;;;;;15.03;12.93;;;11.30;79.90;;;11.28;56.24;93884.69;5053738;28;20469;-55
2022/04/10 04:46:18;;;;;;;17.17;13.57;;;11.20;79.80;;;11.23;57.19;93913.31;5058970;28;20528;-56
2022/04/10 04:48:46;;;;;;;15.67;12.70;;;11.10;81.20;;;11.13;57.65;93910.84;5060430;28;20447;-56
2022/04/10 04:51:16;;;;;;;19.20;13.80;;;11.00;81.90;;;11.06;56.60;93909.91;5055905;28;20536;-56
2022/04/10 04:53:43;;;;;;;16.87;13.17;;;11.00;80.50;;;10.94;56.66;93921.75;5052467;28;20443;-57
2022/04/10 04:56:11;;;;;;;17.30;14.30;;;10.90;81.40;;;10.86;57.77;93913.84;5058817;28;20517;-57
2022/04/10 04:58:38;;;;;;;19.10;14.40;;;10.80;82.70;;;10.82;57.21;93923.88;5056190;28;20455;-57
2022/04/10 05:01:05;;;;;;;24.13;14.10;;;10.70;82.50;;;10.78;58.01;93925.19;5057943;28;20479;-56
2022/04/10 05:03:32;;;;;;;17.27;14.00;;;10.70;83.70;;;10.74;57.80;93926.53;5055202;28;20509;-57
2022/04/10 05:06:00;;;;;;;18.90;13.73;;;10.60;83.10;;;10.69;57.80;93940.16;5015571;28;1195646;-57
2022/04/10 05:08:28;;;;;;;18.27;13.57;;;10.60;83.40;;;10.66;59.53;93937.84;5058962;28;20477;-57
2022/04/10 05:10:55;;;;;;;24.33;12.97;;;10.60;86.00;;;10.62;58.08;93931.28;5052104;28;20521;-55
2022/04/10 05:13:23;;;;;;;18.47;13.20;;;10.50;83.60;;;10.55;57.81;93941.63;5055328;28;20448;-58
2022/04/10 05:15:50;;;;;;;21.17;13.80;;;10.50;83.40;;;10.49;58.70;93946.72;5054602;28;20711;-56
2022/04/10 05:18:19;;;;;;;18.60;13.00;;;10.40;85.00;;;10.43;58.32;93944.75;5055585;28;20476;-55
2022/04/10 05:20:46;;;;;;;19.80;13.63;;;10.40;84.10;;;10.40;59.76;93949.31;5054514;28;20535;-56
2022/04/10 05:23:15;;;;;;;15.27;12.60;;;10.30;86.10;;;10.39;58.68;93949.47;5055660;28;20459;-55
2022/04/10 05:25:44;;;;;;;17.00;13.53;;;10.30;85.20;;;10.38;60.23;93947.84;5054127;28;20475;-55
2022/04/10 05:28:11;;;;;;;18.17;13.57;;;10.30;87.60;;;10.38;58.93;93950.47;5051223;28;20516;-56
2022/04/10 05:30:39;;;;;;;17.97;13.13;;;10.30;86.00;;;10.37;59.09;93943.56;5055911;28;20518;-55
2022/04/10 05:33:06;;;;;;;13.30;10.83;;;10.30;86.50;;;10.37;58.93;93949.63;5050248;28;20636;-55
2022/04/10 05:35:34;;;;;;;14.23;11.80;;;10.30;85.60;;;10.31;58.87;93952.06;5054550;28;20550;-54
2022/04/10 05:38:01;;;;;;;14.77;10.87;;;10.20;86.00;;;10.28;58.63;93953.19;5059304;28;20490;-56
2022/04/10 05:40:29;;;;;;;15.37;11.80;;;10.20;85.80;;;10.28;59.35;93966.34;5060368;28;20507;-56
2022/04/10 05:42:57;;;;;;;15.93;11.60;;;10.20;86.20;;;10.22;58.28;93962.56;5056569;28;20549;-55
2022/04/10 05:45:25;;;;;;;16.43;10.63;;;10.20;85.20;;;10.21;58.37;93978.50;5055547;28;20578;-56
2022/04/10 05:47:52;;;;;;;13.87;10.63;;;10.10;85.10;;;10.14;58.28;93966.97;5063002;28;20809;-58
2022/04/10 05:50:19;;;;;;;15.00;11.43;;;10.10;85.00;;;10.05;58.72;93974.81;5059385;28;21080;-57
2022/04/10 05:52:48;;;;;;;12.67;10.27;;;10.00;85.50;;;9.97;58.34;93976.59;5060638;28;20452;-63
2022/04/10 05:55:18;;;;;;;12.67;9.20;;;9.90;86.50;;;9.92;58.81;93976.25;5054695;28;20471;-55
2022/04/10 05:57:46;;;;;;;15.23;10.60;;;9.90;87.30;;;9.91;58.96;93983.28;5056586;28;20629;-57
2022/04/10 06:00:16;;;;;;;11.43;9.57;;;9.80;87.40;;;9.90;58.50;93979.03;5060529;28;20475;-56
2022/04/10 06:02:44;;;;;;;11.80;9.43;;;9.80;87.10;;;9.87;58.87;93982.78;5053811;28;20452;-57
2022/04/10 06:05:11;;;;;;;12.13;9.70;;;9.80;87.40;;;9.90;58.62;93986.91;5048577;28;21232;-57
2022/04/10 06:07:38;;;;;;;14.73;9.27;;;9.80;87.20;;;9.89;59.18;93985.25;5055540;28;20994;-56
2022/04/10 06:10:08;;;;;;;11.83;8.20;;;9.80;87.90;;;9.89;59.72;93992.31;5055252;28;21011;-55
2022/04/10 06:12:35;;;;;;;12.27;9.53;;;9.80;89.00;;;9.91;58.94;94000.88;5053107;28;20451;-57
2022/04/10 06:15:03;;;;;;;9.77;8.03;;;9.80;87.90;;;9.90;58.96;94010.56;5051965;28;20549;-57
2022/04/10 06:17:32;;;;;;;9.00;8.10;;;9.80;87.70;;;9.90;58.87;94000.06;5054024;28;20489;-56
2022/04/10 06:19:59;;;;;;;9.90;8.50;;;9.80;88.10;;;9.95;59.25;94012.72;5059940;28;20468;-56
2022/04/10 06:22:26;;;;;;;8.87;7.17;;;9.80;88.50;;;9.95;58.67;94021.41;5054678;28;20990;-53
2022/04/10 06:24:55;;;;;;;7.47;6.77;;;9.90;87.80;;;9.98;58.50;94017.66;5050485;28;20999;-56
2022/04/10 06:27:22;;;;;;;7.07;6.47;;;9.90;87.90;;;9.99;59.23;94020.13;5058463;28;21073;-54
2022/04/10 06:29:49;;;;;;;6.77;6.10;;;9.90;88.60;;;9.98;58.49;94010.59;5055542;28;20470;-55
2022/04/10 06:32:16;;;;;;;8.30;6.60;;;9.90;87.50;;;9.98;58.41;94015.84;5052533;28;20454;-57
2022/04/10 06:34:45;;;;;;;8.43;5.50;;;9.90;87.20;;;9.98;59.42;94007.97;5046844;28;20472;-56
2022/04/10 06:37:14;;;;;;;7.60;6.43;;;9.90;88.60;;;9.96;58.45;94002.03;5057738;28;20490;-57
2022/04/10 06:39:41;;;;;;;5.80;5.30;;;9.90;87.20;;;9.93;57.97;94007.63;5056720;28;20556;-56
2022/04/10 06:42:09;;;;;;;7.37;4.70;;;9.90;87.00;;;9.91;58.33;94006.94;5059947;28;20459;-56
2022/04/10 06:44:37;;;;;;;5.67;5.13;;;9.80;87.10;;;9.91;59.04;94009.56;5052331;28;20627;-56
2022/04/10 06:47:05;;;;;;;5.47;4.93;;;9.80;88.20;;;9.94;58.54;94016.31;5054199;28;20455;-56
2022/04/10 06:49:32;;;;;;;5.70;5.20;;;9.80;87.60;;;9.94;58.49;94008.44;5054966;28;20870;-56
2022/04/10 06:52:01;;;;;;;6.23;4.30;;;9.90;87.90;;;9.97;59.25;94014.19;5059341;28;20497;-56
2022/04/10 06:54:29;;;;;;;4.70;3.97;;;9.90;88.90;;;10.01;58.25;94010.28;5059850;28;20504;-55
2022/04/10 06:56:56;;;;;;;4.50;4.20;;;9.90;87.00;;;10.00;58.56;94013.88;5054336;28;21099;-55
2022/04/10 06:59:23;;;;;;;4.27;3.90;;;9.90;87.50;;;10.00;58.27;94002.53;5056237;28;20950;-56
2022/04/10 07:01:51;;;;;;;3.63;3.33;;;9.90;86.80;;;9.98;58.09;93986.94;5059164;28;20760;-55
2022/04/10 07:04:18;;;;;;;3.00;2.80;;;9.90;86.50;;;10.03;58.36;93996.97;5051269;28;20569;-56
2022/04/10 07:06:46;;;;;;;3.20;2.90;;;10.00;86.20;;;10.07;57.80;93994.84;5058195;28;20444;-55
2022/04/10 07:09:15;;;;;;;4.03;3.73;;;10.00;85.00;;;10.03;57.34;94003.03;5053756;28;21036;-57
2022/04/10 07:11:43;;;;;;;3.87;3.40;;;10.00;84.20;;;9.95;57.74;94005.66;5058597;28;20451;-56
2022/04/10 07:14:10;;;;;;;3.57;2.90;;;9.90;86.30;;;9.93;58.16;93997.09;5051748;28;20440;-55
2022/04/10 07:16:37;;;;;;;2.67;2.57;;;9.90;86.60;;;9.94;57.74;93996.09;5053049;28;21069;-56
2022/04/10 07:19:06;;;;;;;2.57;2.47;;;9.90;86.60;;;9.95;57.84;93989.88;5057281;28;20471;-54
2022/04/10 07:24:19;;;;;;;2.20;2.00;;;9.90;86.00;;;9.94;57.42;93987.41;5054610;28;20431;-55
2022/04/10 07:26:46;;;;;;;2.10;2.00;;;9.90;85.00;;;9.91;57.53;93988.53;5054320;28;20447;-55
2022/04/10 07:29:14;;;;;;;1.90;1.70;;;9.90;85.20;;;9.92;57.26;93989.38;5055242;28;20666;-56
2022/04/10 07:31:41;;;;;;;1.70;1.60;;;9.80;84.90;;;9.89;57.09;94006.28;5057405;28;20460;-55
2022/04/10 07:34:09;;;;;;;2.07;1.70;;;9.80;85.10;;;9.88;57.16;94009.88;5050143;28;20466;-56
2022/04/10 07:36:36;;;;;;;4.40;1.40;;;9.80;84.90;;;9.84;56.52;94009.38;5053859;28;20476;-55
2022/04/10 07:39:03;;;;;;;1.67;1.57;;;9.80;84.10;;;9.81;56.84;94020.19;5061598;28;21047;-55
2022/04/10 07:41:32;;;;;;;2.13;1.40;;;9.70;84.80;;;9.85;57.30;94018.06;5058299;28;20485;-55
2022/04/10 07:43:59;;;;;;;1.43;1.33;;;9.80;85.60;;;9.93;56.69;94020.75;5062251;28;20838;-55
2022/04/10 07:49:11;;;;;;;0.90;0.80;;;9.90;84.80;;;10.03;56.51;94023.25;5060073;28;20496;-56
2022/04/10 07:51:39;;;;;;;1.43;1.33;;;9.90;84.20;;;10.02;56.14;94024.22;5059337;28;20476;-56
2022/04/10 07:54:06;;;;;;;1.37;1.27;;;9.90;83.80;;;10.00;56.44;94037.50;5058909;28;20830;-56
2022/04/10 07:56:35;;;;;;;2.07;0.97;;;9.90;83.00;;;10.01;55.94;94038.34;5054841;28;20796;-57
2022/04/10 07:59:02;;;;;;;1.40;1.00;;;9.90;82.90;;;10.00;56.17;94042.75;5059058;28;20546;-54
2022/04/10 08:01:29;;;;;;;1.10;1.00;;;9.90;82.90;;;9.93;56.18;94043.53;5060143;28;20470;-55
2022/04/10 08:03:57;;;;;;;3.10;0.90;;;9.90;82.60;;;9.86;55.79;94033.66;5057933;28;20450;-57
2022/04/10 08:06:24;;;;;;;1.10;0.97;;;9.80;82.80;;;9.83;56.03;94041.84;5054180;28;20479;-58
2022/04/10 08:08:51;;;;;;;1.57;1.47;;;9.80;82.60;;;9.79;56.21;94029.19;5059362;28;20452;-56
2022/04/10 08:11:19;;;;;;;0.90;0.90;;;9.70;83.10;;;9.76;56.09;94037.38;5065485;28;20494;-54
2022/04/10 08:13:47;;;;;;;1.07;0.97;;;9.70;82.70;;;9.74;56.13;94034.91;5061606;28;20455;-57
2022/04/10 08:16:15;;;;;;;0.90;0.90;;;9.70;82.70;;;9.69;56.22;94042.44;5058345;28;20455;-57
2022/04/10 08:18:42;;;;;;;1.00;0.90;;;9.70;82.70;;;9.59;56.18;94039.94;5062267;28;20490;-56
2022/04/10 08:21:09;;;;;;;0.93;0.93;;;9.60;82.40;;;9.54;56.30;94047.41;5065152;28;20547;-56
2022/04/10 08:23:37;;;;;;;1.03;0.93;;;9.50;82.50;;;9.53;56.21;94053.66;5059550;28;20972;-57
2022/04/10 08:26:04;;;;;;;1.47;0.97;;;9.50;82.90;;;9.51;55.45;94048.56;5059565;28;20471;-56
2022/04/10 08:28:32;;;;;;;1.27;1.07;;;9.40;82.40;;;9.48;55.91;94045.41;5059021;28;20554;-56
2022/04/10 08:31:01;;;;;;;0.80;0.70;;;9.40;82.40;;;9.47;55.84;94056.91;5064530;28;21102;-55
2022/04/10 08:33:28;;;;;;;0.97;0.87;;;9.40;82.70;;;9.41;55.94;94057.50;5062465;28;20924;-56
2022/04/10 08:35:56;;;;;;;1.00;0.70;;;9.40;82.50;;;9.36;56.18;94072.88;5057032;28;21017;-54
2022/04/10 08:38:24;;;;;;;0.80;0.80;;;9.30;82.30;;;9.22;55.62;94074.25;5060639;28;20809;-56
2022/04/10 08:40:51;;;;;;;1.10;1.00;;;9.20;82.00;;;9.11;57.47;94081.38;5063855;28;20463;-57
2022/04/10 08:43:18;;;;;;;0.80;0.73;;;9.10;84.20;;;9.05;56.25;94094.28;5062268;28;20452;-57
2022/04/10 08:45:46;;;;;;;2.43;1.10;;;9.00;83.20;;;8.97;56.50;94097.66;5062205;28;20498;-58
2022/04/10 08:48:15;;;;;;;1.23;0.83;;;9.00;83.70;;;8.92;56.65;94098.09;5055830;28;20989;-54
2022/04/10 08:50:43;;;;;;;1.00;0.90;;;8.90;84.20;;;8.85;57.77;94112.75;5060664;28;20573;-58
2022/04/10 08:53:10;;;;;;;0.83;0.77;;;8.80;85.50;;;8.80;56.88;94120.25;5063417;28;20450;-57
2022/04/10 08:55:37;;;;;;;1.40;1.00;;;8.80;84.70;;;8.71;57.65;94113.28;5063140;28;20486;-56
2022/04/10 08:58:05;;;;;;;3.43;1.00;;;8.70;85.30;;;8.60;58.71;94122.16;5063186;28;20560;-57
2022/04/10 09:00:32;;;;;;;1.10;1.00;;;8.60;86.30;;;8.48;58.93;94129.38;5064758;28;20478;-56
2022/04/10 09:03:00;;;;;;;1.37;1.27;;;8.50;87.70;;;8.36;60.21;94117.41;5064124;28;20849;-55
2022/04/10 09:05:28;;;;;;;1.30;0.90;;;8.40;88.20;;;8.20;59.43;94133.75;5062483;28;20470;-56
2022/04/10 09:08:10;;;;;;;1.27;0.97;;;8.30;87.90;;;8.07;59.82;94141.91;5061131;28;20458;-56
2022/04/10 09:10:56;;;;;;;1.00;0.80;;;8.10;88.30;;;7.92;60.19;94136.31;5064949;28;20516;-57
2022/04/10 09:13:29;;;;;;;1.30;1.07;;;8.00;89.50;;;7.85;59.61;94143.09;5063287;28;20789;-57
2022/04/10 09:16:11;;;;;;;1.77;0.80;;;7.90;89.10;;;7.78;59.33;94134.97;5063758;28;20905;-56
2022/04/10 09:18:55;;;;;;;2.07;1.13;;;7.80;89.00;;;7.73;60.02;94137.19;5057651;28;20466;-57
2022/04/10 09:21:28;;;;;;;1.00;0.90;;;7.80;89.40;;;7.67;60.38;94145.63;5057640;28;20480;-55
2022/04/10 09:24:06;;;;;;;1.10;0.80;;;7.70;89.90;;;7.62;60.09;94142.56;5058580;28;20439;-55
2022/04/10 09:26:47;;;;;;;0.97;0.87;;;7.70;89.90;;;7.58;60.15;94139.41;5054202;28;20475;-56
2022/04/10 09:29:14;;;;;;;3.40;3.20;;;7.60;89.90;;;7.58;60.24;94133.38;5058757;28;20447;-58
2022/04/10 09:31:42;;;;;;;0.80;0.70;;;7.60;90.30;;;7.62;61.16;94132.09;5055606;28;20460;-55
2022/04/10 09:34:10;;;;;;;0.77;0.70;;;7.60;90.70;;;7.63;61.06;94136.38;5058847;28;20451;-57
2022/04/10 09:36:41;;;;;;;0.80;0.53;;;7.60;90.50;;;7.61;60.68;94133.91;5055641;28;21076;-57
2022/04/10 09:39:13;;;;;;;1.00;0.57;;;7.60;90.20;;;7.60;60.61;94132.25;5055501;28;20929;-56
2022/04/10 09:41:42;;;;;;;0.90;0.70;;;7.60;90.30;;;7.60;59.94;94129.63;5062003;28;20489;-56
2022/04/10 09:44:17;;;;;;;0.80;0.77;;;7.60;90.20;;;7.58;61.06;94130.75;5055635;28;20460;-57
2022/04/10 09:46:44;;;;;;;1.20;0.90;;;7.60;90.70;;;7.58;60.75;94134.19;5054701;28;20941;-57
2022/04/10 09:49:19;;;;;;;0.80;0.70;;;7.60;90.50;;;7.65;60.72;94134.44;5058033;28;20459;-57
2022/04/10 09:52:01;;;;;;;0.80;0.60;;;7.60;90.50;;;7.75;62.34;94137.88;5058834;28;20451;-56
2022/04/10 09:54:35;;;;;;;0.93;0.70;;;7.70;91.80;;;7.82;60.92;94151.22;5053181;28;20799;-55
2022/04/10 09:57:04;;;;;;;0.80;0.60;;;7.80;91.10;;;7.86;60.57;94149.97;5052326;28;20888;-55
2022/04/10 09:59:37;;;;;;;1.77;0.60;;;7.80;91.00;;;7.85;60.78;94156.16;5057504;28;20494;-56
2022/04/10 10:02:06;;;;;;;0.80;0.60;;;7.80;90.70;;;7.85;60.80;94157.03;5053074;28;20544;-55
2022/04/10 10:04:35;;;;;;;0.70;0.50;;;7.80;90.40;;;7.86;60.43;94158.66;5059388;28;20451;-57
2022/04/10 10:07:06;;;;;;;0.90;0.80;;;7.80;90.40;;;7.86;59.55;94158.66;5054264;28;20984;-55
2022/04/10 10:09:34;;;;;;;0.70;0.50;;;7.90;90.30;;;7.85;60.45;94167.50;5056255;28;20487;-57
2022/04/10 10:12:01;;;;;;;0.70;0.40;;;7.90;90.40;;;7.79;59.91;94154.97;5057493;28;20868;-55
2022/04/10 10:14:30;;;;;;;0.80;0.50;;;7.80;90.50;;;7.76;60.33;94159.63;5058006;28;20487;-56
2022/04/10 10:16:58;;;;;;;1.73;0.50;;;7.80;90.10;;;7.71;60.32;94166.13;5053529;28;20454;-56
2022/04/10 10:19:25;;;;;;;0.87;0.70;;;7.70;90.30;;;7.72;60.83;94159.91;5053619;28;20490;-55
2022/04/10 10:21:53;;;;;;;0.80;0.50;;;7.70;90.60;;;7.73;60.53;94150.28;5055568;28;20641;-55
2022/04/10 10:24:23;;;;;;;0.70;0.50;;;7.70;90.80;;;7.67;59.41;94143.81;5060497;28;20455;-57
2022/04/10 10:27:05;;;;;;;0.70;0.50;;;7.70;90.00;;;7.54;61.45;94141.50;5053942;28;20509;-55
2022/04/10 10:29:55;;;;;;;0.80;0.50;;;7.60;90.60;;;7.46;60.43;94133.50;5056623;28;20863;-55